Time;durP1;ratioP1;P1;durP2;ratioP2;P2;SDS_P1;SDS_P2;PMS_P1;PMS_P2;Temp;Humidity;BMP_temperature;BMP_pressure;BME280_temperature;BME280_humidity;BME280_pressure;Samples;Min_cycle;Max_cycle;Signal;HPM_P1;HPM_P2
2023/06/30 00:00:12;;;;;;;12.68;8.60;;;;;;;23.33;60.30;99481.19;4886411;29;20043;-87
2023/06/30 00:02:46;;;;;;;13.50;9.13;;;;;;;23.30;60.27;99487.06;4862200;29;20048;-86
2023/06/30 00:05:16;;;;;;;14.43;9.32;;;;;;;23.26;60.17;99484.00;4885283;29;20053;-86
2023/06/30 00:07:43;;;;;;;13.05;8.90;;;;;;;23.27;60.29;99480.22;4881461;29;20502;-86
2023/06/30 00:10:10;;;;;;;15.85;9.82;;;;;;;23.25;60.32;99482.31;4861494;29;20127;-87
2023/06/30 00:12:37;;;;;;;17.73;9.63;;;;;;;23.25;60.41;99476.91;4884184;29;20124;-87
2023/06/30 00:15:04;;;;;;;14.70;9.95;;;;;;;23.23;60.48;99475.47;4887629;29;20104;-87
2023/06/30 00:17:31;;;;;;;15.38;9.43;;;;;;;23.22;60.47;99474.66;4861442;29;20044;-86
2023/06/30 00:19:59;;;;;;;23.02;10.10;;;;;;;23.21;60.52;99475.72;4859183;29;20459;-87
2023/06/30 00:22:26;;;;;;;14.07;10.05;;;;;;;23.19;60.54;99465.09;4886716;29;20137;-86
2023/06/30 00:24:54;;;;;;;13.05;9.73;;;;;;;23.19;60.42;99459.69;4861485;29;20044;-87
2023/06/30 00:27:22;;;;;;;13.82;8.93;;;;;;;23.17;60.50;99461.78;4880085;29;20053;-87
2023/06/30 00:29:49;;;;;;;17.35;9.82;;;;;;;23.14;60.86;99454.13;4893825;29;20048;-87
2023/06/30 00:32:15;;;;;;;15.10;10.10;;;;;;;23.11;60.90;99441.03;4896584;29;20040;-86
2023/06/30 00:34:43;;;;;;;15.60;9.98;;;;;;;23.09;60.65;99436.91;4878334;29;20049;-87
2023/06/30 00:37:09;;;;;;;12.40;8.95;;;;;;;23.09;60.72;99434.19;4859411;29;20048;-86
2023/06/30 00:39:36;;;;;;;15.65;10.02;;;;;;;23.12;60.56;99436.44;4860941;29;20071;-87
2023/06/30 00:42:03;;;;;;;15.85;10.07;;;;;;;23.08;60.63;99430.66;4871095;29;20061;-86
2023/06/30 00:44:30;;;;;;;12.98;10.15;;;;;;;23.09;60.89;99432.31;4875252;29;20053;-86
2023/06/30 00:47:00;;;;;;;16.50;10.52;;;;;;;23.06;60.91;99421.94;4876518;29;20742;-86
2023/06/30 00:49:28;;;;;;;16.23;10.13;;;;;;;23.06;61.01;99424.66;4874624;29;20055;-86
2023/06/30 00:51:55;;;;;;;13.23;9.75;;;;;;;23.03;60.73;99425.09;4875963;29;20053;-86
2023/06/30 00:54:22;;;;;;;17.17;10.48;;;;;;;23.03;60.40;99430.53;4892775;29;20056;-87
2023/06/30 00:56:48;;;;;;;16.25;9.98;;;;;;;23.07;60.57;99428.19;4859839;29;20128;-87
2023/06/30 00:59:15;;;;;;;19.58;10.65;;;;;;;23.04;60.75;99425.94;4884657;29;20718;-86
2023/06/30 01:01:57;;;;;;;15.00;10.25;;;;;;;22.94;61.35;99423.72;4890367;29;20064;-86
2023/06/30 01:04:30;;;;;;;14.27;9.77;;;;;;;22.96;61.23;99425.16;4871437;29;20071;-86
2023/06/30 01:07:12;;;;;;;;;;;;;;;22.71;62.24;99419.81;4880121;29;20053;-86
2023/06/30 01:09:47;;;;;;;16.57;10.07;;;;;;;22.87;61.33;99422.97;4889857;29;19927;-86
2023/06/30 01:12:13;;;;;;;16.80;10.45;;;;;;;22.90;60.94;99420.66;4870728;29;20406;-86
2023/06/30 01:14:40;;;;;;;14.80;11.13;;;;;;;22.92;61.00;99428.53;4875636;29;20127;-87
2023/06/30 01:17:11;;;;;;;16.45;9.93;;;;;;;22.91;60.99;99427.69;4861613;29;20048;-87
2023/06/30 01:19:39;;;;;;;16.35;10.27;;;;;;;22.89;61.13;99421.69;4882716;29;20048;-87
2023/06/30 01:22:18;;;;;;;17.40;10.25;;;;;;;22.76;61.80;99422.66;4846804;29;20059;-87
2023/06/30 01:24:46;;;;;;;14.65;11.27;;;;;;;22.84;61.13;99424.25;4866322;29;20044;-87
2023/06/30 01:27:14;;;;;;;12.93;10.15;;;;;;;22.82;61.17;99418.25;4873615;29;20045;-87
2023/06/30 01:29:42;;;;;;;17.52;11.10;;;;;;;22.79;61.28;99415.97;4893543;29;20068;-86
2023/06/30 01:32:09;;;;;;;18.60;10.23;;;;;;;22.81;61.22;99410.34;4901724;29;20053;-86
2023/06/30 01:34:36;;;;;;;19.30;9.82;;;;;;;22.74;61.58;99416.66;4845718;29;20132;-86
2023/06/30 01:37:03;;;;;;;19.17;10.95;;;;;;;22.73;61.67;99398.75;4886241;29;20048;-86
2023/06/30 01:39:30;;;;;;;14.38;10.40;;;;;;;22.73;61.60;99401.47;4856319;29;20041;-86
2023/06/30 01:41:57;;;;;;;19.75;10.85;;;;;;;22.72;62.00;99401.72;4875056;29;20432;-86
2023/06/30 01:44:23;;;;;;;16.08;10.65;;;;;;;22.69;62.04;99400.25;4857906;29;20121;-87
2023/06/30 01:46:50;;;;;;;15.00;10.65;;;;;;;22.70;62.18;99401.09;4844850;29;20041;-86
2023/06/30 01:49:18;;;;;;;16.52;10.65;;;;;;;22.71;62.07;99391.91;4863615;29;20425;-87
2023/06/30 01:51:45;;;;;;;16.98;10.75;;;;;;;22.69;61.60;99404.84;4865104;29;20053;-87
2023/06/30 01:54:12;;;;;;;13.57;10.80;;;;;;;22.68;61.76;99401.31;4856893;29;20524;-86
2023/06/30 01:56:46;;;;;;;16.65;11.77;;;;;;;22.59;62.30;99401.81;4870841;29;20453;-87
2023/06/30 01:59:14;;;;;;;18.98;11.68;;;;;;;22.63;62.00;99397.63;4864019;29;20095;-87
2023/06/30 02:01:41;;;;;;;15.40;10.18;;;;;;;22.66;61.96;99387.16;4873760;29;20131;-87
2023/06/30 02:04:09;;;;;;;19.33;11.48;;;;;;;22.65;61.81;99395.53;4875627;29;20052;-86
2023/06/30 02:06:36;;;;;;;19.55;10.88;;;;;;;22.62;61.93;99386.00;4874319;29;20053;-87
2023/06/30 02:09:03;;;;;;;15.15;10.45;;;;;;;22.61;62.15;99386.19;4856696;29;20053;-87
2023/06/30 02:11:29;;;;;;;14.35;10.93;;;;;;;22.60;61.98;99388.09;4874865;29;20862;-86
2023/06/30 02:13:56;;;;;;;18.38;11.63;;;;;;;22.58;61.90;99394.78;4860100;29;20055;-87
2023/06/30 02:16:23;;;;;;;18.55;11.52;;;;;;;22.54;62.07;99387.13;4856102;29;20135;-86
2023/06/30 02:18:54;;;;;;;19.50;10.77;;;;;;;22.55;61.91;99387.94;4887729;29;20047;-86
2023/06/30 02:21:22;;;;;;;20.33;11.88;;;;;;;22.54;61.95;99384.41;4873128;29;20068;-87
2023/06/30 02:23:49;;;;;;;18.02;11.10;;;;;;;22.54;62.10;99383.56;4857065;29;20531;-87
2023/06/30 02:26:16;;;;;;;19.05;11.95;;;;;;;22.51;61.82;99389.41;4875080;29;20110;-87
2023/06/30 02:28:42;;;;;;;16.13;10.93;;;;;;;22.51;61.93;99389.41;4858628;29;20071;-87
2023/06/30 02:31:09;;;;;;;16.77;11.88;;;;;;;22.50;61.94;99394.00;4860239;29;20068;-87
2023/06/30 02:33:37;;;;;;;15.73;11.07;;;;;;;22.47;61.99;99378.22;4876532;29;20062;-87
2023/06/30 02:36:03;;;;;;;16.55;10.95;;;;;;;22.47;62.02;99385.53;4871143;29;20040;-87
2023/06/30 02:38:31;;;;;;;16.30;11.13;;;;;;;22.46;61.85;99384.69;4872016;29;20090;-86
2023/06/30 02:40:58;;;;;;;16.55;11.38;;;;;;;22.44;61.90;99386.81;4862504;29;20579;-86
2023/06/30 02:43:24;;;;;;;18.42;11.00;;;;;;;22.42;61.94;99388.09;4852012;29;20049;-87
2023/06/30 02:45:52;;;;;;;15.65;11.20;;;;;;;22.41;62.15;99375.59;4845861;29;20045;-87
2023/06/30 02:48:19;;;;;;;15.93;11.15;;;;;;;22.38;62.27;99381.44;4879385;29;20799;-86
2023/06/30 02:50:47;;;;;;;16.38;11.15;;;;;;;22.38;61.99;99384.16;4871405;29;20055;-86
2023/06/30 02:53:15;;;;;;;16.95;12.23;;;;;;;22.35;62.20;99385.44;4868034;29;20564;-86
2023/06/30 02:55:42;;;;;;;19.35;11.65;;;;;;;22.32;62.08;99375.06;4874562;29;20508;-86
2023/06/30 02:58:13;;;;;;;15.00;10.30;;;;;;;22.30;62.09;99375.28;4873849;29;20052;-87
2023/06/30 03:00:41;;;;;;;14.50;11.02;;;;;;;22.29;62.16;99378.22;4860271;29;20061;-87
2023/06/30 03:03:08;;;;;;;18.75;11.65;;;;;;;22.27;62.35;99375.72;4858628;29;20049;-87
2023/06/30 03:05:36;;;;;;;18.20;11.18;;;;;;;22.27;62.27;99366.78;4869738;29;20048;-86
2023/06/30 03:08:05;;;;;;;19.55;11.75;;;;;;;22.24;62.45;99373.47;4862996;29;20059;-86
2023/06/30 03:10:33;;;;;;;14.63;10.50;;;;;;;22.23;62.60;99377.22;4861155;29;20048;-86
2023/06/30 03:12:59;;;;;;;17.65;11.40;;;;;;;22.21;62.62;99375.78;4868436;29;20057;-86
2023/06/30 03:15:26;;;;;;;17.50;10.90;;;;;;;22.18;62.46;99363.50;4861585;29;20086;-86
2023/06/30 03:17:55;;;;;;;17.98;12.10;;;;;;;22.20;62.61;99368.72;4873797;29;20049;-86
2023/06/30 03:20:23;;;;;;;19.77;10.45;;;;;;;22.20;62.42;99377.66;4866763;29;20050;-83
2023/06/30 03:22:52;;;;;;;17.52;11.35;;;;;;;22.18;62.43;99368.09;4869991;29;20057;-81
2023/06/30 03:25:19;;;;;;;21.40;11.85;;;;;;;22.15;62.59;99369.38;4893323;29;20048;-82
2023/06/30 03:27:46;;;;;;;20.70;12.70;;;;;;;22.10;62.35;99359.22;4891257;29;20059;-82
2023/06/30 03:30:12;;;;;;;18.88;12.00;;;;;;;22.14;62.24;99367.72;4893483;29;20060;-81
2023/06/30 03:32:43;;;;;;;22.35;12.98;;;;;;;22.11;62.37;99355.47;4843858;29;20055;-81
2023/06/30 03:35:10;;;;;;;20.83;11.75;;;;;;;22.09;62.30;99367.56;4865146;29;20044;-81
2023/06/30 03:37:37;;;;;;;22.40;13.00;;;;;;;22.09;62.57;99367.56;4875272;29;20045;-82
2023/06/30 03:40:05;;;;;;;16.83;11.30;;;;;;;22.09;62.76;99365.69;4878341;29;20100;-81
2023/06/30 03:42:32;;;;;;;18.48;11.38;;;;;;;22.08;62.73;99365.88;4889957;29;20588;-81
2023/06/30 03:45:00;;;;;;;16.10;11.18;;;;;;;22.07;62.83;99362.34;4880008;29;20051;-83
2023/06/30 03:47:31;;;;;;;19.13;11.63;;;;;;;22.03;62.50;99366.56;4884939;29;21078;-81
2023/06/30 03:49:58;;;;;;;17.73;11.65;;;;;;;22.01;62.25;99365.16;4884600;29;20055;-82
2023/06/30 03:52:26;;;;;;;24.00;12.43;;;;;;;22.02;62.25;99364.09;4866864;29;20409;-81
2023/06/30 03:54:53;;;;;;;18.85;11.80;;;;;;;22.04;62.29;99365.50;4892631;29;20049;-83
2023/06/30 03:57:20;;;;;;;17.60;12.07;;;;;;;22.05;62.46;99360.94;4894355;29;20044;-81
2023/06/30 03:59:47;;;;;;;18.10;11.07;;;;;;;22.06;62.75;99362.59;4869425;29;20501;-82
2023/06/30 04:02:14;;;;;;;18.88;12.07;;;;;;;22.07;62.56;99361.53;4883812;29;26212;-81
2023/06/30 04:04:41;;;;;;;18.40;12.85;;;;;;;22.06;62.47;99355.31;4868903;29;20054;-81
2023/06/30 04:07:07;;;;;;;21.48;12.80;;;;;;;22.05;62.44;99358.22;4906873;29;20116;-82
2023/06/30 04:09:35;;;;;;;18.20;12.35;;;;;;;22.07;62.32;99358.84;4888036;29;20501;-81
2023/06/30 04:12:01;;;;;;;20.33;12.52;;;;;;;22.07;62.36;99353.44;4897818;29;20131;-81
2023/06/30 04:14:28;;;;;;;18.25;12.13;;;;;;;22.04;62.37;99346.59;4888150;29;20085;-81
2023/06/30 04:16:55;;;;;;;17.35;11.10;;;;;;;22.05;62.36;99347.41;4877950;29;20059;-81
2023/06/30 04:19:24;;;;;;;20.55;12.02;;;;;;;22.07;62.27;99353.44;4895302;29;20497;-82
2023/06/30 04:21:51;;;;;;;20.17;11.90;;;;;;;22.09;62.26;99354.03;4895886;29;20131;-82
2023/06/30 04:24:19;;;;;;;20.35;12.32;;;;;;;22.07;62.52;99350.72;4875538;29;20142;-82
2023/06/30 04:26:46;;;;;;;19.15;12.55;;;;;;;22.04;62.32;99346.59;4900270;29;20213;-82
2023/06/30 04:29:13;;;;;;;21.77;13.10;;;;;;;22.02;62.50;99354.09;4880672;29;20107;-81
2023/06/30 04:31:42;;;;;;;20.20;13.20;;;;;;;22.05;62.60;99355.53;4865929;29;20056;-82
2023/06/30 04:34:09;;;;;;;19.65;12.57;;;;;;;22.02;62.51;99350.56;4852460;29;20123;-81
2023/06/30 04:36:36;;;;;;;21.05;13.02;;;;;;;22.04;62.67;99354.69;4892403;29;20045;-81
2023/06/30 04:39:03;;;;;;;21.52;13.48;;;;;;;22.05;62.78;99352.81;4862947;29;20049;-81
2023/06/30 04:41:30;;;;;;;19.35;14.00;;;;;;;22.04;62.87;99351.19;4882628;29;20052;-82
2023/06/30 04:43:57;;;;;;;21.13;13.93;;;;;;;22.00;62.31;99348.06;4892093;29;20105;-81
2023/06/30 04:46:25;;;;;;;20.05;13.02;;;;;;;22.04;62.33;99352.00;4880737;29;20137;-81
2023/06/30 04:48:52;;;;;;;22.75;12.90;;;;;;;22.03;62.03;99349.50;4890069;29;20044;-82
2023/06/30 04:51:19;;;;;;;25.63;14.25;;;;;;;22.03;61.99;99355.75;4885065;29;20078;-82
2023/06/30 04:53:45;;;;;;;19.27;13.30;;;;;;;22.05;62.03;99364.44;4887063;29;20848;-82
2023/06/30 04:56:12;;;;;;;19.25;13.65;;;;;;;22.05;62.29;99359.03;4882628;29;20055;-82
2023/06/30 04:58:39;;;;;;;20.38;13.23;;;;;;;22.07;62.02;99372.34;4873088;29;20055;-82
2023/06/30 05:01:06;;;;;;;25.45;13.85;;;;;;;22.03;62.32;99374.69;4895066;29;20416;-83
2023/06/30 05:03:33;;;;;;;27.88;14.23;;;;;;;22.03;62.57;99374.69;4863821;29;20052;-82
2023/06/30 05:06:00;;;;;;;23.50;13.13;;;;;;;22.04;62.66;99370.09;4886796;29;20049;-81
2023/06/30 05:08:26;;;;;;;24.02;14.05;;;;;;;22.05;62.63;99369.88;4904056;29;20060;-82
2023/06/30 05:10:53;;;;;;;22.23;14.13;;;;;;;22.07;62.71;99366.94;4864197;29;20464;-82
2023/06/30 05:13:20;;;;;;;23.20;13.60;;;;;;;22.05;62.45;99371.75;4885464;29;20413;-82
2023/06/30 05:15:47;;;;;;;23.58;15.57;;;;;;;22.07;62.51;99356.13;4892053;29;20804;-82
2023/06/30 05:18:14;;;;;;;22.52;13.68;;;;;;;22.12;62.81;99361.69;4895160;29;20051;-82
2023/06/30 05:20:41;;;;;;;21.13;13.60;;;;;;;22.14;62.53;99366.91;4883735;29;20064;-82
2023/06/30 05:23:08;;;;;;;25.70;16.02;;;;;;;22.10;62.69;99361.09;4861558;29;20045;-83
2023/06/30 05:25:35;;;;;;;24.00;15.30;;;;;;;22.12;62.76;99356.28;4859794;29;20101;-82
2023/06/30 05:28:03;;;;;;;28.65;14.50;;;;;;;22.14;62.88;99351.50;4887972;29;20049;-83
2023/06/30 05:30:30;;;;;;;21.30;14.15;;;;;;;22.17;62.75;99340.22;4895592;29;20041;-82
2023/06/30 05:32:56;;;;;;;23.67;13.98;;;;;;;22.17;63.08;99350.22;4876852;29;20104;-82
2023/06/30 05:35:23;;;;;;;24.23;13.60;;;;;;;22.22;62.95;99350.41;4873047;29;20109;-82
2023/06/30 05:37:50;;;;;;;25.98;14.40;;;;;;;22.23;63.13;99352.88;4912183;29;20051;-82
2023/06/30 05:40:17;;;;;;;24.70;14.50;;;;;;;22.24;62.98;99348.31;4861994;29;20401;-82
2023/06/30 05:42:43;;;;;;;26.77;14.52;;;;;;;22.23;63.01;99355.56;4892402;29;20138;-82
2023/06/30 05:45:10;;;;;;;24.88;15.32;;;;;;;22.25;62.93;99352.66;4896696;29;20040;-82
2023/06/30 05:47:37;;;;;;;29.55;15.45;;;;;;;22.25;62.84;99355.38;4886873;29;20052;-82
2023/06/30 05:50:04;;;;;;;23.15;16.08;;;;;;;22.27;62.98;99359.50;4874673;29;20130;-82
2023/06/30 05:52:31;;;;;;;25.08;14.65;;;;;;;22.28;63.02;99357.63;4874837;29;20527;-82
2023/06/30 05:54:59;;;;;;;31.38;15.23;;;;;;;22.28;63.05;99360.31;4892894;29;20131;-82
2023/06/30 05:57:29;;;;;;;29.42;15.02;;;;;;;22.33;62.69;99358.59;4881445;29;20040;-82
2023/06/30 05:59:56;;;;;;;25.77;15.23;;;;;;;22.35;62.84;99354.84;4878255;29;20103;-82
2023/06/30 06:02:23;;;;;;;25.33;14.40;;;;;;;22.40;63.05;99358.53;4885317;29;20041;-82
2023/06/30 06:04:51;;;;;;;20.08;14.48;;;;;;;22.44;63.00;99367.88;4879712;29;20378;-82
2023/06/30 06:07:18;;;;;;;22.40;14.20;;;;;;;22.51;63.24;99367.78;4880270;29;20054;-82
2023/06/30 06:09:45;;;;;;;29.40;15.57;;;;;;;22.53;62.93;99371.09;4857703;29;20068;-83
2023/06/30 06:12:12;;;;;;;38.60;15.00;;;;;;;22.58;62.83;99363.13;4878300;29;20124;-82
2023/06/30 06:14:38;;;;;;;31.70;16.40;;;;;;;22.61;62.89;99359.97;4869418;29;20037;-82
2023/06/30 06:17:05;;;;;;;25.58;14.88;;;;;;;22.65;63.04;99363.06;4851818;29;20044;-82
2023/06/30 06:19:32;;;;;;;28.10;15.00;;;;;;;22.68;63.11;99360.72;4860403;29;20055;-83
2023/06/30 06:22:00;;;;;;;28.90;16.15;;;;;;;22.70;63.00;99363.22;4898445;29;20052;-82
2023/06/30 06:24:27;;;;;;;24.88;14.23;;;;;;;22.71;62.62;99367.56;4889948;29;20056;-83
2023/06/30 06:26:54;;;;;;;23.08;14.70;;;;;;;22.67;62.62;99366.34;4869115;29;20040;-83
2023/06/30 06:29:22;;;;;;;21.02;13.93;;;;;;;22.69;62.68;99364.25;4877063;29;20045;-82
2023/06/30 06:31:50;;;;;;;23.02;15.70;;;;;;;22.70;62.81;99365.91;4851415;29;20458;-82
2023/06/30 06:34:20;;;;;;;23.35;14.32;;;;;;;22.72;62.91;99378.16;4895032;29;20052;-83
2023/06/30 06:36:47;;;;;;;25.00;15.45;;;;;;;22.74;63.02;99381.47;4876194;29;20135;-83
2023/06/30 06:39:14;;;;;;;22.05;14.25;;;;;;;22.76;63.27;99378.53;4870842;29;20056;-82
2023/06/30 06:41:41;;;;;;;29.15;15.48;;;;;;;22.77;63.33;99388.31;4892328;29;21005;-82
2023/06/30 06:44:08;;;;;;;25.30;14.75;;;;;;;22.82;63.32;99393.03;4875624;29;20059;-82
2023/06/30 06:46:35;;;;;;;25.92;14.27;;;;;;;22.84;63.32;99390.94;4874012;29;21661;-82
2023/06/30 06:49:02;;;;;;;21.65;15.00;;;;;;;22.86;63.44;99386.13;4886205;29;20058;-83
2023/06/30 06:51:28;;;;;;;26.05;13.93;;;;;;;22.86;63.23;99386.94;4899182;29;20567;-83
2023/06/30 06:53:55;;;;;;;25.33;14.05;;;;;;;22.88;63.55;99394.84;4873109;29;20040;-82
2023/06/30 06:56:22;;;;;;;24.90;14.20;;;;;;;22.90;63.78;99392.75;4893287;29;20040;-83
2023/06/30 06:58:49;;;;;;;22.50;13.75;;;;;;;22.89;63.67;99389.19;4878747;29;20052;-82
2023/06/30 07:01:16;;;;;;;25.92;14.93;;;;;;;22.92;63.87;99407.72;4866793;29;20119;-82
2023/06/30 07:03:42;;;;;;;23.88;13.82;;;;;;;22.92;64.03;99396.03;4895252;29;20465;-82
2023/06/30 07:06:09;;;;;;;22.75;14.82;;;;;;;22.92;63.83;99398.75;4879959;29;20041;-82
2023/06/30 07:08:36;;;;;;;18.40;12.65;;;;;;;22.96;63.69;99402.66;4845947;29;20048;-81
2023/06/30 07:11:04;;;;;;;23.55;13.57;;;;;;;22.95;63.70;99401.84;4885040;29;20396;-82
2023/06/30 07:13:30;;;;;;;22.10;13.27;;;;;;;22.94;63.79;99410.19;4878953;29;20497;-81
2023/06/30 07:15:57;;;;;;;21.42;13.65;;;;;;;22.97;63.73;99404.34;4899272;29;20075;-82
2023/06/30 07:18:24;;;;;;;19.80;13.73;;;;;;;23.04;64.06;99406.97;4864076;29;20040;-82
2023/06/30 07:20:52;;;;;;;24.00;14.20;;;;;;;23.07;63.32;99411.91;4874174;29;20055;-83
2023/06/30 07:23:19;;;;;;;25.63;15.65;;;;;;;23.09;62.70;99401.69;4859426;29;20104;-82
2023/06/30 07:25:48;;;;;;;27.92;15.25;;;;;;;23.12;62.73;99414.78;4879231;29;20051;-83
2023/06/30 07:28:15;;;;;;;23.02;13.82;;;;;;;23.12;62.81;99412.06;4870970;29;20770;-82
2023/06/30 07:30:42;;;;;;;26.73;15.25;;;;;;;23.14;62.60;99404.53;4860873;29;20044;-82
2023/06/30 07:33:10;;;;;;;22.35;12.95;;;;;;;23.17;62.15;99410.31;4848907;29;20473;-82
2023/06/30 07:35:37;;;;;;;20.85;13.25;;;;;;;23.15;62.16;99409.75;4883615;29;20124;-83
2023/06/30 07:38:04;;;;;;;23.02;13.80;;;;;;;23.17;62.28;99404.09;4867620;29;20103;-82
2023/06/30 07:40:31;;;;;;;23.08;14.18;;;;;;;23.16;62.37;99405.97;4863058;29;20117;-81
2023/06/30 07:43:16;;;;;;;23.98;14.68;;;;;;;23.14;62.50;99399.94;4877687;29;20048;-82
2023/06/30 07:45:43;;;;;;;24.92;14.27;;;;;;;23.17;62.14;99404.91;4874750;29;20143;-82
2023/06/30 07:48:10;;;;;;;21.20;14.57;;;;;;;23.19;61.99;99402.81;4873575;29;20060;-82
2023/06/30 07:50:37;;;;;;;27.55;14.35;;;;;;;23.21;61.90;99404.47;4855314;29;20449;-82
2023/06/30 07:53:08;;;;;;;24.25;15.07;;;;;;;23.18;61.80;99401.16;4843954;29;20052;-82
2023/06/30 07:55:35;;;;;;;20.75;13.98;;;;;;;23.21;61.70;99404.47;4881466;29;20741;-81
2023/06/30 07:58:02;;;;;;;23.40;15.27;;;;;;;23.21;61.43;99404.47;4879348;29;20049;-83
2023/06/30 08:00:29;;;;;;;26.63;16.20;;;;;;;23.22;61.04;99406.13;4881120;29;20128;-82
2023/06/30 08:02:56;;;;;;;32.25;16.30;;;;;;;23.20;60.91;99409.03;4890653;29;20498;-82
2023/06/30 08:05:23;;;;;;;46.33;17.27;;;;;;;23.19;61.40;99410.09;4873664;29;20048;-82
2023/06/30 08:07:50;;;;;;;26.85;16.77;;;;;;;23.22;61.00;99414.25;4864774;29;20045;-82
2023/06/30 08:10:18;;;;;;;33.22;17.63;;;;;;;23.21;61.10;99416.13;4883932;29;20765;-83
2023/06/30 08:12:45;;;;;;;30.83;16.58;;;;;;;23.23;61.10;99418.59;4851639;29;20130;-83
2023/06/30 08:15:12;;;;;;;30.13;16.30;;;;;;;23.23;60.92;99414.03;4864967;29;20151;-83
2023/06/30 08:17:39;;;;;;;29.58;16.75;;;;;;;23.18;60.61;99425.53;4893104;29;20049;-83
2023/06/30 08:20:24;;;;;;;33.03;16.65;;;;;;;23.21;60.69;99431.56;4871302;29;20121;-83
2023/06/30 08:22:53;;;;;;;32.80;16.17;;;;;;;23.18;60.68;99435.56;4888971;29;20508;-83
2023/06/30 08:25:26;;;;;;;30.80;15.85;;;;;;;23.13;60.79;99433.53;4876790;29;20115;-83
2023/06/30 08:27:53;;;;;;;33.13;17.15;;;;;;;23.14;60.72;99437.88;4863992;29;20045;-83
2023/06/30 08:30:19;;;;;;;35.03;17.25;;;;;;;23.16;61.08;99432.25;4895548;29;20449;-83
2023/06/30 08:32:50;;;;;;;39.42;18.42;;;;;;;23.19;60.88;99435.31;4886377;29;20424;-82
2023/06/30 08:35:17;;;;;;;31.70;16.05;;;;;;;23.21;61.18;99434.28;4874670;29;20105;-82
2023/06/30 08:37:45;;;;;;;33.05;17.23;;;;;;;23.23;61.23;99441.13;4894199;29;20496;-82
2023/06/30 08:40:20;;;;;;;37.58;17.55;;;;;;;23.23;60.96;99445.69;4884158;29;20067;-82
2023/06/30 08:42:48;;;;;;;32.90;16.90;;;;;;;23.22;61.20;99444.84;4880548;29;20068;-82
2023/06/30 08:45:15;;;;;;;41.67;17.52;;;;;;;23.29;61.45;99442.91;4895111;29;20048;-83
2023/06/30 08:47:42;;;;;;;37.55;18.73;;;;;;;23.30;61.27;99441.00;4865609;29;20068;-82
2023/06/30 08:50:09;;;;;;;39.92;16.13;;;;;;;23.34;61.39;99439.50;4878666;29;20040;-82
2023/06/30 08:52:36;;;;;;;38.72;17.08;;;;;;;23.34;61.42;99434.91;4878940;29;20059;-82
2023/06/30 08:55:04;;;;;;;39.63;17.88;;;;;;;23.40;61.48;99441.28;4897131;29;20522;-82
2023/06/30 08:57:31;;;;;;;37.33;16.60;;;;;;;23.42;61.70;99446.50;4895731;29;20448;-83
2023/06/30 08:59:58;;;;;;;41.58;17.17;;;;;;;23.41;61.36;99434.84;4890761;29;20131;-82
2023/06/30 09:02:25;;;;;;;36.03;17.75;;;;;;;23.46;61.70;99453.94;4881325;29;20076;-82
2023/06/30 09:04:53;;;;;;;34.50;16.80;;;;;;;23.47;61.58;99442.03;4882090;29;20055;-82
2023/06/30 09:07:26;;;;;;;38.20;16.80;;;;;;;23.43;61.73;99440.00;4887219;29;20052;-82
2023/06/30 09:10:00;;;;;;;42.35;19.40;;;;;;;23.46;61.69;99445.81;4886338;29;20055;-83
2023/06/30 09:12:28;;;;;;;44.33;19.17;;;;;;;23.52;61.53;99438.63;4893227;29;20048;-82
2023/06/30 09:14:59;;;;;;;40.38;19.17;;;;;;;23.53;61.05;99437.56;4859893;29;20045;-82
2023/06/30 09:17:28;;;;;;;46.83;19.05;;;;;;;23.50;61.25;99430.72;4877393;29;20060;-84
2023/06/30 09:19:54;;;;;;;47.45;19.58;;;;;;;23.54;61.08;99431.94;4868065;29;20045;-83
2023/06/30 09:22:21;;;;;;;41.35;18.38;;;;;;;23.61;61.75;99421.81;4893404;29;20063;-82
2023/06/30 09:25:26;;;;;;;37.67;19.15;;;;;;;23.70;61.98;99429.63;4891747;29;20045;-83
2023/06/30 09:27:54;;;;;;;41.50;19.13;;;;;;;23.82;61.95;99423.19;4891027;29;20458;-82
2023/06/30 09:30:37;;;;;;;44.70;17.33;;;;;;;23.80;61.49;99425.31;4889301;29;20102;-83
2023/06/30 09:33:05;;;;;;;50.03;20.05;;;;;;;23.96;61.44;99420.28;4878002;29;20053;-83
2023/06/30 09:35:39;;;;;;;44.67;21.48;;;;;;;23.96;60.33;99429.22;4858506;29;20104;-82
2023/06/30 09:38:10;;;;;;;39.80;18.10;;;;;;;24.03;60.75;99427.25;4894689;29;20063;-82
2023/06/30 09:40:37;;;;;;;45.33;20.98;;;;;;;24.12;60.38;99416.88;4891584;29;20072;-82
2023/06/30 09:43:05;;;;;;;47.03;22.35;;;;;;;24.14;60.44;99413.94;4864884;29;20507;-82
2023/06/30 09:45:31;;;;;;;41.90;20.73;;;;;;;24.15;60.27;99408.28;4872598;29;20068;-82
2023/06/30 09:47:58;;;;;;;49.55;19.65;;;;;;;24.17;60.64;99410.75;4891389;29;20048;-81
2023/06/30 09:50:30;;;;;;;46.70;21.25;;;;;;;24.23;60.42;99407.91;4890063;29;20049;-82
2023/06/30 09:52:57;;;;;;;37.63;19.83;;;;;;;24.28;60.03;99409.94;4887742;29;20044;-83
2023/06/30 09:55:24;;;;;;;42.28;20.30;;;;;;;24.33;60.13;99396.47;4885062;29;20045;-82
2023/06/30 09:57:53;;;;;;;43.67;20.85;;;;;;;24.41;58.95;99408.88;4880977;29;20041;-82
2023/06/30 10:00:20;;;;;;;34.40;18.67;;;;;;;24.39;59.32;99400.94;4893857;29;20050;-83
2023/06/30 10:03:03;;;;;;;37.60;18.63;;;;;;;24.43;59.37;99394.00;4871513;29;20056;-83
2023/06/30 10:05:30;;;;;;;48.15;21.42;;;;;;;24.47;59.25;99403.38;4858153;29;20096;-83
2023/06/30 10:08:01;;;;;;;42.50;20.90;;;;;;;24.46;59.51;99404.41;4869454;29;20464;-83
2023/06/30 10:10:28;;;;;;;43.60;21.20;;;;;;;24.48;59.32;99394.16;4880157;29;20053;-82
2023/06/30 10:12:58;;;;;;;41.80;20.65;;;;;;;24.43;59.54;99404.03;4855985;29;20486;-82
2023/06/30 10:15:25;;;;;;;46.92;19.13;;;;;;;24.41;59.90;99401.53;4883457;29;20044;-83
2023/06/30 10:17:54;;;;;;;44.97;20.60;;;;;;;24.39;59.50;99402.84;4892663;29;20048;-82
2023/06/30 10:20:21;;;;;;;40.53;18.90;;;;;;;24.33;59.61;99401.91;4860410;29;20056;-83
2023/06/30 10:23:04;;;;;;;42.20;20.77;;;;;;;24.30;59.47;99402.38;4880854;29;20108;-82
2023/06/30 10:25:36;;;;;;;54.33;23.67;;;;;;;24.23;58.73;99404.38;4864645;29;20052;-82
2023/06/30 10:28:03;;;;;;;47.35;22.58;;;;;;;24.14;58.99;99403.91;4862859;29;20498;-82
2023/06/30 10:30:31;;;;;;;60.95;26.05;;;;;;;23.97;59.20;99411.91;4895788;29;20053;-83
2023/06/30 10:32:57;;;;;;;58.83;25.20;;;;;;;23.96;59.14;99406.72;4887306;29;20051;-82
2023/06/30 10:35:24;;;;;;;64.65;27.73;;;;;;;23.82;59.42;99415.06;4903945;29;20556;-82
2023/06/30 10:37:52;;;;;;;69.78;27.05;;;;;;;23.80;59.62;99416.34;4881016;29;20155;-82
2023/06/30 10:40:29;;;;;;;75.10;28.63;;;;;;;23.76;59.66;99407.88;4856259;29;20370;-82
2023/06/30 10:42:57;;;;;;;59.45;25.15;;;;;;;23.84;59.84;99420.28;4879421;29;20051;-83
2023/06/30 10:45:33;;;;;;;53.63;24.60;;;;;;;23.82;60.46;99411.53;4899822;29;20051;-83
2023/06/30 10:48:13;;;;;;;73.03;27.08;;;;;;;23.84;60.95;99417.56;4869506;29;20049;-82
2023/06/30 10:50:44;;;;;;;54.92;22.30;;;;;;;23.94;60.55;99415.09;4879662;29;20056;-82
2023/06/30 10:53:17;;;;;;;78.72;31.30;;;;;;;23.95;60.63;99413.22;4876050;29;20541;-82
2023/06/30 10:55:45;;;;;;;83.35;30.77;;;;;;;24.02;60.86;99413.94;4883266;29;20512;-82
2023/06/30 10:58:23;;;;;;;89.28;32.80;;;;;;;23.88;61.29;99421.44;4875801;29;20052;-81
2023/06/30 11:01:03;;;;;;;84.65;31.88;;;;;;;23.88;61.62;99424.16;4848455;29;20044;-82
2023/06/30 11:03:57;;;;;;;79.85;29.17;;;;;;;23.86;61.79;99422.72;4889580;29;20131;-82
2023/06/30 11:06:25;;;;;;;97.65;32.22;;;;;;;23.90;61.56;99422.03;4885517;29;20523;-82
2023/06/30 11:09:00;;;;;;;84.63;32.53;;;;;;;23.77;61.73;99439.34;4857845;29;20051;-82
2023/06/30 11:11:27;;;;;;;78.78;29.85;;;;;;;23.88;61.42;99421.44;4845007;29;20060;-82
2023/06/30 11:14:06;;;;;;;81.55;29.33;;;;;;;23.81;61.22;99416.13;4881790;29;20059;-82
2023/06/30 11:17:05;;;;;;;81.90;29.42;;;;;;;23.88;61.70;99410.59;4878990;29;20496;-82
2023/06/30 11:19:32;;;;;;;77.85;28.23;;;;;;;23.94;61.06;99415.09;4890159;29;20469;-82
2023/06/30 11:22:25;;;;;;;77.97;28.23;;;;;;;23.93;61.01;99412.59;4866173;29;20048;-82